Time;durP1;ratioP1;P1;durP2;ratioP2;P2;SDS_P1;SDS_P2;PMS_P1;PMS_P2;Temp;Humidity;BMP_temperature;BMP_pressure;BME280_temperature;BME280_humidity;BME280_pressure;Samples;Min_cycle;Max_cycle;Signal;HPM_P1;HPM_P2
2021/09/04 00:01:59;;;;;;;13.35;11.23;;;;;;;21.12;56.59;102098.19;4922870;29;20487;-75
2021/09/04 00:04:24;;;;;;;12.05;10.52;;;;;;;21.10;56.58;102099.91;4903565;29;20020;-77
2021/09/04 00:06:50;;;;;;;14.35;11.27;;;;;;;21.10;56.56;102092.91;4873068;29;20063;-78
2021/09/04 00:09:15;;;;;;;14.32;11.35;;;;;;;21.10;56.66;102092.91;4873278;29;20032;-82
2021/09/04 00:11:40;;;;;;;12.00;9.57;;;;;;;21.11;56.56;102097.31;4888445;29;20032;-85
2021/09/04 00:14:06;;;;;;;13.85;10.63;;;;;;;21.05;56.60;102084.09;4886636;29;20036;-85
2021/09/04 00:16:31;;;;;;;12.38;10.48;;;;;;;21.11;56.49;102089.41;4904903;29;20035;-86
2021/09/04 00:18:57;;;;;;;12.43;10.02;;;;;;;21.08;56.40;102081.50;4893496;29;20055;-84
2021/09/04 00:21:22;;;;;;;17.80;12.23;;;;;;;21.00;56.48;102065.69;4904718;29;20040;-81
2021/09/04 00:23:48;;;;;;;14.98;10.23;;;;;;;21.07;56.65;102079.75;4920059;29;20047;-84
2021/09/04 00:26:13;;;;;;;13.50;11.40;;;;;;;21.08;56.67;102081.50;4905580;29;20035;-80
2021/09/04 00:28:38;;;;;;;;;;;;;;;21.12;56.53;102092.91;4921975;29;19922;-80
2021/09/04 00:31:06;;;;;;;;;;;;;;;21.12;56.54;102082.41;4919888;29;19921;-80
2021/09/04 00:33:31;;;;;;;;;;;;;;;21.12;56.58;102091.16;4903633;29;19926;-81
2021/09/04 00:35:57;;;;;;;;;;;;;;;21.12;56.55;102085.91;4909934;29;19919;-80
2021/09/04 00:38:22;;;;;;;;;;;;;;;21.11;56.52;102080.63;4935356;29;19911;-80
2021/09/04 00:40:47;;;;;;;;;;;;;;;21.11;56.41;102086.78;4938095;29;19960;-80
2021/09/04 00:43:13;;;;;;;15.07;11.57;;;;;;;21.08;56.48;102080.63;4921654;29;20128;-82
2021/09/04 00:45:38;;;;;;;11.98;10.32;;;;;;;21.11;56.47;102078.88;4906667;29;20319;-83
2021/09/04 00:48:05;;;;;;;13.75;11.40;;;;;;;21.11;56.50;102080.63;4906895;29;20039;-83
2021/09/04 00:50:32;;;;;;;10.30;8.45;;;;;;;21.10;56.52;102082.38;4938821;29;20032;-83
2021/09/04 00:53:01;;;;;;;14.30;10.45;;;;;;;21.10;56.54;102071.00;4937907;29;20024;-83
2021/09/04 00:55:28;;;;;;;12.32;9.45;;;;;;;21.11;56.43;102080.63;4919223;29;20028;-82
2021/09/04 00:57:53;;;;;;;14.77;11.63;;;;;;;21.08;56.47;102078.88;4936834;29;20505;-83
2021/09/04 01:00:19;;;;;;;12.38;9.95;;;;;;;21.09;56.27;102083.25;4921640;29;20033;-84
2021/09/04 01:02:45;;;;;;;13.48;9.75;;;;;;;21.09;56.35;102074.50;4939204;29;20023;-87
2021/09/04 01:05:11;;;;;;;13.77;10.85;;;;;;;21.09;56.55;102080.63;4922162;29;20039;-83
2021/09/04 01:07:37;;;;;;;13.27;11.88;;;;;;;21.05;56.47;102074.47;4938401;29;20028;-82
2021/09/04 01:10:04;;;;;;;12.57;10.45;;;;;;;20.95;56.39;102062.16;4938840;29;20040;-83
2021/09/04 01:12:31;;;;;;;13.18;9.82;;;;;;;21.09;56.29;102071.84;4921647;29;20031;-84
2021/09/04 01:14:57;;;;;;;14.75;11.05;;;;;;;20.97;56.26;102056.91;4905166;29;20032;-82
2021/09/04 01:17:24;;;;;;;13.17;9.90;;;;;;;21.07;56.33;102068.34;4939182;29;20090;-83
2021/09/04 01:19:49;;;;;;;13.20;10.35;;;;;;;21.07;56.20;102070.97;4924359;29;20406;-81
2021/09/04 01:22:14;;;;;;;;;;;;;;;21.10;56.28;102073.63;4939669;29;20119;-81
2021/09/04 01:24:40;;;;;;;12.33;10.17;;;;;;;21.07;56.30;102063.06;4924078;29;20044;-82
2021/09/04 01:27:06;;;;;;;13.25;10.40;;;;;;;21.06;56.27;102064.81;4923817;29;20326;-83
2021/09/04 01:29:31;;;;;;;11.67;9.27;;;;;;;21.08;56.42;102068.34;4923639;29;20032;-86
2021/09/04 01:31:56;;;;;;;12.50;10.23;;;;;;;21.05;56.31;102056.06;4913870;29;20079;-83
2021/09/04 01:34:22;;;;;;;10.75;9.25;;;;;;;21.03;56.34;102049.06;4925409;29;20036;-82
2021/09/04 01:36:47;;;;;;;12.70;10.15;;;;;;;21.04;56.44;102050.78;4910848;29;20478;-83
2021/09/04 01:39:13;;;;;;;11.13;8.60;;;;;;;21.10;56.54;102063.09;4923930;29;20119;-83
2021/09/04 01:41:40;;;;;;;14.25;9.52;;;;;;;21.04;56.29;102049.03;4906422;29;20060;-84
2021/09/04 01:44:08;;;;;;;13.40;9.80;;;;;;;21.04;56.47;102053.41;4929471;29;20039;-83
2021/09/04 01:46:34;;;;;;;11.82;10.32;;;;;;;21.07;56.49;102052.56;4942113;29;20054;-83
2021/09/04 01:49:01;;;;;;;10.75;9.00;;;;;;;21.03;56.50;102052.53;4928982;29;20480;-84
2021/09/04 01:51:26;;;;;;;13.32;10.38;;;;;;;21.00;56.23;102049.03;4916761;29;20032;-81
2021/09/04 01:53:52;;;;;;;12.33;9.83;;;;;;;21.01;56.43;102045.53;4915547;29;20089;-82
2021/09/04 01:56:17;;;;;;;10.40;8.65;;;;;;;21.05;56.32;102053.44;4941882;29;20031;-85
2021/09/04 01:58:43;;;;;;;11.07;9.00;;;;;;;21.00;56.47;102041.16;4909290;29;20071;-85
2021/09/04 02:01:08;;;;;;;12.65;9.43;;;;;;;21.05;56.40;102048.16;4909246;29;20028;-83
2021/09/04 02:03:36;;;;;;;11.60;9.95;;;;;;;21.05;56.21;102057.81;4909584;29;20024;-82
2021/09/04 02:06:03;;;;;;;12.60;9.50;;;;;;;20.94;56.34;102036.72;4941097;29;20121;-84
2021/09/04 02:08:31;;;;;;;12.50;9.90;;;;;;;21.08;56.35;102060.47;4924592;29;19921;-86
2021/09/04 02:10:57;;;;;;;11.60;9.10;;;;;;;21.09;56.29;102050.81;4939835;29;19919;-82
2021/09/04 02:13:23;;;;;;;11.30;9.03;;;;;;;21.08;56.25;102043.81;4924425;29;19982;-84
2021/09/04 02:15:48;;;;;;;12.37;9.40;;;;;;;21.03;56.37;102036.75;4940143;29;20027;-82
2021/09/04 02:18:14;;;;;;;11.43;9.52;;;;;;;21.07;56.17;102045.53;4906873;29;20487;-81
2021/09/04 02:20:39;;;;;;;12.35;9.85;;;;;;;21.04;56.05;102038.53;4908599;29;20071;-81
2021/09/04 02:23:05;;;;;;;10.35;8.65;;;;;;;21.01;56.34;102043.78;4909003;29;20051;-81
2021/09/04 02:25:30;;;;;;;11.82;8.43;;;;;;;21.05;56.24;102032.38;4905160;29;20028;-82
2021/09/04 02:27:55;;;;;;;11.30;9.50;;;;;;;21.01;56.17;102029.75;4877256;29;20058;-80
2021/09/04 02:30:21;;;;;;;11.18;9.15;;;;;;;21.03;56.34;102034.13;4891582;29;20423;-82
2021/09/04 02:32:46;;;;;;;14.52;9.93;;;;;;;21.07;56.19;102042.03;4907594;29;20032;-80
2021/09/04 02:35:12;;;;;;;13.18;9.18;;;;;;;21.08;56.18;102049.06;4907991;29;20027;-80
2021/09/04 02:37:37;;;;;;;11.70;7.87;;;;;;;20.93;56.31;102027.09;4923798;29;20043;-81
2021/09/04 02:40:04;;;;;;;14.00;9.82;;;;;;;21.01;56.28;102035.03;4891934;29;20070;-80
2021/09/04 02:42:29;;;;;;;8.93;7.87;;;;;;;21.07;56.38;102045.53;4907377;29;20035;-81
2021/09/04 02:44:55;;;;;;;10.95;9.48;;;;;;;20.97;56.36;102028.88;4892501;29;19919;-80
2021/09/04 02:47:20;;;;;;;10.45;9.10;;;;;;;20.91;56.22;102026.19;4892148;29;20536;-80
2021/09/04 02:49:46;;;;;;;12.20;9.50;;;;;;;21.03;56.26;102047.28;4891708;29;20032;-80
2021/09/04 02:52:11;;;;;;;11.90;8.40;;;;;;;21.04;56.41;102045.53;4907396;29;19924;-80
2021/09/04 02:54:37;;;;;;;10.97;9.63;;;;;;;21.05;56.44;102048.16;4922191;29;19927;-81
2021/09/04 02:57:03;;;;;;;11.70;9.20;;;;;;;21.03;56.08;102038.53;4888028;29;19930;-80
2021/09/04 02:59:28;;;;;;;12.32;9.43;;;;;;;21.02;56.39;102037.66;4888169;29;19923;-81
2021/09/04 03:01:54;;;;;;;12.70;9.52;;;;;;;21.01;56.29;102035.91;4888313;29;20032;-81
2021/09/04 03:04:19;;;;;;;12.40;9.40;;;;;;;21.04;56.06;102045.53;4890484;29;20032;-80
2021/09/04 03:06:44;;;;;;;10.40;8.50;;;;;;;21.06;56.06;102041.16;4906773;29;19947;-81
2021/09/04 03:09:10;;;;;;;;;;;;;;;21.04;56.21;102038.53;4922453;29;20062;-80
2021/09/04 03:11:35;;;;;;;;;;;;;;;21.04;56.16;102038.53;4922453;29;19919;-80
2021/09/04 03:14:01;;;;;;;;;;;;;;;21.04;56.34;102038.53;4922105;29;19934;-81
2021/09/04 03:16:27;;;;;;;;;;;;;;;21.05;56.18;102039.41;4924010;29;19914;-89
2021/09/04 03:18:52;;;;;;;;;;;;;;;21.05;56.16;102034.13;4929462;29;20433;-80
2021/09/04 03:21:17;;;;;;;;;;;;;;;21.04;56.21;102041.16;4921106;29;19946;-81
2021/09/04 03:23:43;;;;;;;;;;;;;;;21.05;56.14;102040.28;4913972;29;20006;-80
2021/09/04 03:26:08;;;;;;;;;;;;;;;21.05;56.46;102047.28;4936598;29;19911;-83
2021/09/04 03:28:33;;;;;;;;;;;;;;;21.05;56.21;102050.78;4939388;29;19950;-85
2021/09/04 03:30:58;;;;;;;;;;;;;;;21.05;56.14;102050.78;4924430;29;19914;-82
2021/09/04 03:33:24;;;;;;;;;;;;;;;21.05;56.29;102048.16;4939706;29;19998;-81
2021/09/04 03:35:55;;;;;;;;;;;;;;;21.04;56.16;102041.16;4940624;29;19911;-82
2021/09/04 03:38:24;;;;;;;12.10;8.40;;;;;;;21.02;56.19;102042.94;4926605;29;19923;-84
2021/09/04 03:40:50;;;;;;;;;;;;;;;21.04;56.29;102038.53;4923587;29;20032;-82
2021/09/04 03:43:19;;;;;;;;;;;;;;;21.04;56.43;102038.53;4923288;29;19995;-81
2021/09/04 03:45:48;;;;;;;;;;;;;;;21.04;56.17;102030.63;4915244;29;19990;-80
2021/09/04 03:48:13;;;;;;;;;;;;;;;21.04;56.22;102032.38;4921820;29;19919;-81
2021/09/04 03:50:39;;;;;;;;;;;;;;;21.04;56.27;102037.63;4921109;29;20013;-81
2021/09/04 03:53:05;;;;;;;10.93;8.73;;;;;;;20.92;56.09;102014.81;4940170;29;19973;-82
2021/09/04 03:55:30;;;;;;;12.02;9.02;;;;;;;21.02;56.43;102024.50;4904626;29;20100;-81
2021/09/04 03:57:55;;;;;;;12.50;9.68;;;;;;;21.01;56.40;102028.00;4919938;29;20078;-81
2021/09/04 04:00:21;;;;;;;11.32;8.90;;;;;;;21.03;56.31;102022.75;4898363;29;20027;-81
2021/09/04 04:02:46;;;;;;;11.00;7.63;;;;;;;21.03;56.21;102026.25;4923103;29;20066;-82
2021/09/04 04:05:12;;;;;;;10.63;8.90;;;;;;;21.01;56.16;102020.13;4922566;29;20060;-81
2021/09/04 04:07:37;;;;;;;10.30;7.95;;;;;;;20.99;56.00;102008.72;4922926;29;20031;-81
2021/09/04 04:10:04;;;;;;;9.43;8.15;;;;;;;21.02;56.17;102021.88;4939354;29;20111;-83
2021/09/04 04:12:30;;;;;;;11.10;8.38;;;;;;;21.02;56.29;102024.50;4938066;29;20035;-83
2021/09/04 04:14:56;;;;;;;10.13;9.05;;;;;;;21.02;56.49;102021.00;4938016;29;20032;-83
2021/09/04 04:17:21;;;;;;;11.63;9.25;;;;;;;20.96;56.50;102011.31;4938160;29;20031;-83
2021/09/04 04:19:46;;;;;;;10.43;8.85;;;;;;;20.86;56.29;101991.16;4906153;29;20067;-82
2021/09/04 04:22:11;;;;;;;;;;;;;;;21.02;56.36;102018.38;4938325;29;20036;-80
2021/09/04 04:24:37;;;;;;;9.50;7.88;;;;;;;20.81;56.27;101986.72;4937342;29;20007;-83
2021/09/04 04:27:03;;;;;;;10.38;8.27;;;;;;;20.85;56.14;102005.16;4922198;29;20032;-82
2021/09/04 04:29:29;;;;;;;12.55;10.05;;;;;;;20.99;56.33;102026.25;4906899;29;20035;-83
2021/09/04 04:31:54;;;;;;;9.07;8.13;;;;;;;21.01;56.20;102029.75;4903772;29;20039;-83
2021/09/04 04:34:19;;;;;;;;;;;;;;;21.02;56.15;102023.63;4887737;29;20092;-81
2021/09/04 04:36:45;;;;;;;9.27;7.83;;;;;;;20.95;56.30;102019.22;4918953;29;19939;-82
2021/09/04 04:39:12;;;;;;;10.20;8.32;;;;;;;21.00;56.14;102031.50;4918999;29;20604;-81
2021/09/04 04:41:37;;;;;;;11.80;8.70;;;;;;;20.91;56.14;102025.31;4888726;29;20096;-82
2021/09/04 04:44:03;;;;;;;11.50;9.50;;;;;;;20.86;56.33;102014.81;4902846;29;20115;-81
2021/09/04 04:46:28;;;;;;;11.82;7.95;;;;;;;20.85;56.18;101999.03;4919082;29;20020;-83
2021/09/04 04:48:54;;;;;;;10.85;8.50;;;;;;;21.03;56.33;102046.44;4898930;29;20058;-82
2021/09/04 04:51:19;;;;;;;10.68;8.95;;;;;;;21.00;56.16;102039.41;4907719;29;20031;-82
2021/09/04 04:53:44;;;;;;;11.65;9.38;;;;;;;21.00;56.21;102042.03;4924906;29;20132;-83
2021/09/04 04:56:10;;;;;;;11.40;8.60;;;;;;;20.96;56.24;102037.63;4924828;29;20031;-82
2021/09/04 04:58:35;;;;;;;8.02;6.47;;;;;;;20.96;56.26;102036.75;4925947;29;20028;-82
2021/09/04 05:01:00;;;;;;;10.10;7.60;;;;;;;21.01;56.02;102033.28;4925959;29;20131;-80
2021/09/04 05:03:26;;;;;;;9.32;7.22;;;;;;;20.99;56.18;102040.28;4908976;29;20075;-88
2021/09/04 05:05:52;;;;;;;12.60;8.45;;;;;;;21.01;55.97;102045.53;4931768;29;20041;-90
2021/09/04 05:08:17;;;;;;;8.50;7.10;;;;;;;20.94;55.89;102042.00;4945168;29;20070;-82
2021/09/04 05:10:42;;;;;;;9.43;7.43;;;;;;;20.89;55.79;102038.50;4911012;29;20063;-82
2021/09/04 05:13:08;;;;;;;10.13;7.65;;;;;;;20.98;55.91;102054.28;4925877;29;20102;-76
2021/09/04 05:15:33;;;;;;;8.70;7.18;;;;;;;20.95;55.86;102051.66;4910130;29;20063;-78
2021/09/04 05:17:59;;;;;;;10.13;7.85;;;;;;;20.95;55.87;102048.13;4922006;29;20076;-77
2021/09/04 05:20:24;;;;;;;8.65;7.10;;;;;;;20.98;55.96;102063.94;4891842;29;20034;-76
2021/09/04 05:22:49;;;;;;;9.75;7.93;;;;;;;20.97;56.26;102052.53;4897900;29;20027;-75
2021/09/04 05:25:16;;;;;;;11.18;8.27;;;;;;;20.91;55.91;102046.34;4908992;29;20068;-78
2021/09/04 05:27:42;;;;;;;9.48;7.85;;;;;;;21.00;56.26;102057.81;4893462;29;20024;-76
2021/09/04 05:30:07;;;;;;;8.35;7.47;;;;;;;20.95;56.26;102045.50;4909457;29;20494;-77
2021/09/04 05:32:33;;;;;;;11.32;7.65;;;;;;;20.97;55.99;102051.66;4907364;29;20111;-79
2021/09/04 05:35:01;;;;;;;11.13;9.70;;;;;;;20.95;56.03;102049.00;4924759;29;20024;-77
2021/09/04 05:37:27;;;;;;;9.35;7.20;;;;;;;20.98;56.12;102059.56;4889561;29;20427;-79
2021/09/04 05:39:53;;;;;;;10.13;7.68;;;;;;;20.88;56.08;102052.50;4905561;29;20107;-82
2021/09/04 05:42:20;;;;;;;10.35;7.75;;;;;;;20.99;56.27;102052.53;4890555;29;20028;-81
2021/09/04 05:44:45;;;;;;;12.27;7.35;;;;;;;20.95;55.63;102050.75;4906042;29;20048;-78
2021/09/04 05:47:11;;;;;;;11.57;7.35;;;;;;;20.90;54.67;102055.16;4904730;29;20050;-80
2021/09/04 05:49:36;;;;;;;10.25;8.23;;;;;;;20.87;53.50;102057.75;4902367;29;20035;-76
2021/09/04 05:52:02;;;;;;;10.13;7.75;;;;;;;20.70;53.38;102039.25;4908999;29;20039;-81
2021/09/04 05:54:27;;;;;;;9.98;7.22;;;;;;;20.77;54.25;102059.47;4909073;29;20028;-81
2021/09/04 05:56:53;;;;;;;11.95;9.38;;;;;;;20.69;53.30;102051.53;4908357;29;20439;-77
2021/09/04 05:59:19;;;;;;;10.85;8.10;;;;;;;20.67;53.19;102057.66;4892717;29;20451;-80
2021/09/04 06:01:44;;;;;;;10.68;8.30;;;;;;;20.68;52.28;102059.41;4908182;29;20028;-82
2021/09/04 06:04:09;;;;;;;14.40;8.15;;;;;;;20.56;51.87;102044.44;4892665;29;20050;-72
2021/09/04 06:06:35;;;;;;;10.68;8.82;;;;;;;20.66;52.49;102055.88;4891729;29;20066;-77
2021/09/04 06:09:02;;;;;;;12.63;9.00;;;;;;;20.64;52.76;102052.41;4907698;29;20118;-78
2021/09/04 06:11:29;;;;;;;12.18;9.50;;;;;;;20.61;52.31;102042.75;4908306;29;20043;-79
2021/09/04 06:13:57;;;;;;;10.90;8.77;;;;;;;20.66;51.75;102046.25;4923579;29;20047;-82
2021/09/04 06:16:22;;;;;;;11.52;8.50;;;;;;;20.70;52.06;102057.66;4923459;29;20034;-81
2021/09/04 06:18:48;;;;;;;13.50;9.20;;;;;;;20.54;51.70;102025.16;4910624;29;20147;-73
2021/09/04 06:21:13;;;;;;;13.32;9.30;;;;;;;20.68;51.73;102049.78;4938997;29;20087;-79
2021/09/04 06:26:14;;;;;;;12.50;8.52;;;;;;;20.62;51.52;102036.63;5554691;23;20055;-76
2021/09/04 06:28:40;;;;;;;12.95;8.20;;;;;;;20.60;51.68;102046.22;4907988;29;20123;-75
2021/09/04 06:31:05;;;;;;;12.77;9.60;;;;;;;20.72;51.43;102063.81;4936350;29;20081;-75
2021/09/04 06:33:30;;;;;;;12.50;8.32;;;;;;;20.62;51.64;102060.25;4904996;29;20039;-79
2021/09/04 06:35:56;;;;;;;10.45;8.60;;;;;;;20.65;51.30;102059.38;4905132;29;20038;-78
2021/09/04 06:38:21;;;;;;;10.63;9.15;;;;;;;20.67;51.51;102074.28;4889250;29;20367;-76
2021/09/04 06:40:47;;;;;;;13.38;9.27;;;;;;;20.66;51.48;102072.53;4920211;29;20027;-74
2021/09/04 06:43:13;;;;;;;13.02;8.65;;;;;;;20.63;51.60;102071.66;4919823;29;20043;-72
2021/09/04 06:45:38;;;;;;;13.65;9.38;;;;;;;20.66;51.22;102082.16;4920161;29;20024;-79
2021/09/04 06:48:05;;;;;;;9.63;8.07;;;;;;;20.55;51.13;102073.34;4888821;29;20422;-80
2021/09/04 06:50:31;;;;;;;16.15;9.98;;;;;;;20.57;51.46;102068.97;4888854;29;20075;-74
2021/09/04 06:52:57;;;;;;;19.65;9.10;;;;;;;20.63;51.89;102076.91;4903402;29;20052;-73
2021/09/04 06:55:23;;;;;;;13.75;8.57;;;;;;;20.66;51.48;102080.41;4888593;29;20059;-78
2021/09/04 06:57:48;;;;;;;11.15;9.02;;;;;;;20.61;50.93;102068.13;4891197;29;20088;-72
2021/09/04 07:00:14;;;;;;;12.27;8.82;;;;;;;20.59;51.21;102078.63;4888335;29;20024;-76
2021/09/04 07:02:39;;;;;;;13.60;8.65;;;;;;;20.58;50.77;102084.75;4887737;29;20494;-76
2021/09/04 07:05:05;;;;;;;13.73;9.07;;;;;;;20.54;51.11;102084.72;4903802;29;20028;-77
2021/09/04 07:07:30;;;;;;;13.57;9.20;;;;;;;20.47;50.68;102080.31;4903614;29;20036;-77
2021/09/04 07:09:56;;;;;;;13.73;9.18;;;;;;;20.25;50.79;102069.59;4902796;29;20047;-75
2021/09/04 07:12:21;;;;;;;13.10;9.30;;;;;;;20.08;51.16;102079.13;4921892;29;20028;-77
2021/09/04 07:14:47;;;;;;;11.43;8.40;;;;;;;19.87;51.45;102084.19;4903952;29;20039;-79
2021/09/04 07:17:12;;;;;;;12.05;8.90;;;;;;;19.53;52.37;102072.47;4895972;29;20470;-75
2021/09/04 07:19:38;;;;;;;13.88;9.63;;;;;;;19.42;52.83;102077.59;4902718;29;20397;-78
2021/09/04 07:22:03;;;;;;;15.07;9.50;;;;;;;19.50;52.56;102073.31;4893832;29;20079;-79
2021/09/04 07:24:29;;;;;;;11.75;8.77;;;;;;;19.63;52.17;102064.72;4920427;29;20027;-76
2021/09/04 07:26:54;;;;;;;22.98;9.27;;;;;;;19.41;52.16;102072.31;4923433;28;20464;-75
2021/09/04 07:29:19;;;;;;;14.43;8.77;;;;;;;19.67;52.42;102077.88;4927092;28;20019;-78
2021/09/04 07:31:45;;;;;;;15.18;7.93;;;;;;;19.87;51.62;102061.44;4926898;28;20078;-76
2021/09/04 07:34:10;;;;;;;13.05;8.98;;;;;;;20.23;51.60;102086.25;4942234;28;20105;-75
2021/09/04 07:36:36;;;;;;;11.35;8.73;;;;;;;20.34;51.27;102089.81;4937825;29;20122;-74
2021/09/04 07:39:01;;;;;;;11.52;9.02;;;;;;;20.43;51.21;102075.91;4923368;29;20027;-74
2021/09/04 07:41:27;;;;;;;11.30;9.38;;;;;;;20.13;50.57;102080.03;4940789;29;20035;-75
2021/09/04 07:43:52;;;;;;;15.23;9.20;;;;;;;19.64;51.43;102076.09;4924183;29;20481;-78
2021/09/04 07:46:17;;;;;;;9.43;7.40;;;;;;;19.37;52.02;102068.78;4924239;28;20051;-74
2021/09/04 07:48:43;;;;;;;14.80;9.73;;;;;;;19.33;52.16;102087.13;4924900;29;20035;-76
2021/09/04 07:51:08;;;;;;;13.90;8.98;;;;;;;19.13;52.40;102072.00;4913881;28;20126;-76
2021/09/04 07:53:33;;;;;;;14.60;9.80;;;;;;;19.02;52.85;102083.22;4926574;28;20054;-77
2021/09/04 07:55:59;;;;;;;15.20;9.48;;;;;;;19.11;52.68;102078.09;4941223;28;20058;-79
2021/09/04 07:58:24;;;;;;;12.68;8.68;;;;;;;19.22;52.11;102073.84;4925353;28;20054;-73
2021/09/04 08:00:49;;;;;;;14.95;9.75;;;;;;;19.14;52.24;102072.88;4926369;28;20046;-77
2021/09/04 08:03:15;;;;;;;16.67;9.23;;;;;;;19.19;51.86;102093.06;4926308;28;20445;-77
2021/09/04 08:05:40;;;;;;;11.35;8.30;;;;;;;19.01;52.42;102084.97;4941609;28;20544;-75
2021/09/04 08:08:06;;;;;;;12.30;8.95;;;;;;;18.89;52.83;102088.31;4942352;28;20041;-77
2021/09/04 08:10:31;;;;;;;11.27;7.75;;;;;;;19.03;52.48;102087.63;4926052;28;20449;-78
2021/09/04 08:12:57;;;;;;;13.90;9.02;;;;;;;18.94;52.39;102085.78;4942209;28;20058;-75
2021/09/04 08:15:22;;;;;;;10.95;7.88;;;;;;;18.88;52.77;102096.16;4941886;28;20027;-78
2021/09/04 08:17:48;;;;;;;12.95;9.23;;;;;;;18.83;52.89;102092.59;4942146;28;20098;-76
2021/09/04 08:20:13;;;;;;;11.63;8.75;;;;;;;18.62;53.17;102102.78;4942186;28;20121;-78
2021/09/04 08:22:39;;;;;;;12.45;9.57;;;;;;;18.71;53.19;102097.66;4941768;28;20121;-77
2021/09/04 08:25:05;;;;;;;12.15;8.55;;;;;;;18.75;53.25;102104.72;4942384;28;20074;-76
2021/09/04 08:27:30;;;;;;;10.23;8.60;;;;;;;18.80;53.17;102116.16;4961168;28;20516;-74
2021/09/04 08:29:56;;;;;;;9.07;7.57;;;;;;;18.61;53.19;102087.91;4939569;28;20384;-78
2021/09/04 08:32:21;;;;;;;10.25;8.93;;;;;;;18.78;52.87;102108.25;4943212;29;20039;-73
2021/09/04 08:34:47;;;;;;;12.80;8.43;;;;;;;18.77;53.02;102095.13;4954923;28;20043;-74
2021/09/04 08:37:12;;;;;;;10.20;8.18;;;;;;;18.89;52.72;102090.94;4944966;28;20034;-74
2021/09/04 08:39:38;;;;;;;12.32;8.10;;;;;;;19.04;52.56;102102.50;4931705;29;20039;-74
2021/09/04 08:42:03;;;;;;;9.90;8.15;;;;;;;18.90;52.72;102097.94;4926057;29;20035;-74
2021/09/04 08:44:29;;;;;;;9.82;7.68;;;;;;;19.07;52.32;102102.53;4926109;29;20030;-74
2021/09/04 08:46:55;;;;;;;10.80;8.43;;;;;;;18.97;52.64;102098.88;4941679;29;20125;-73
2021/09/04 08:49:20;;;;;;;13.43;8.07;;;;;;;19.02;52.42;102088.47;4942171;29;20052;-75
2021/09/04 08:51:46;;;;;;;10.98;7.38;;;;;;;19.40;51.99;102097.69;4910761;29;20042;-81
2021/09/04 08:54:12;;;;;;;11.70;7.63;;;;;;;19.69;53.17;102091.91;4927499;29;20098;-81
2021/09/04 08:56:37;;;;;;;8.75;7.82;;;;;;;19.84;52.77;102081.53;4927034;29;20032;-76
2021/09/04 08:59:03;;;;;;;9.50;7.97;;;;;;;20.07;52.56;102097.50;4925971;29;20422;-78
2021/09/04 09:01:29;;;;;;;10.13;7.70;;;;;;;20.19;52.78;102092.34;4910689;29;20035;-80
2021/09/04 09:04:01;;;;;;;9.13;7.10;;;;;;;20.29;52.58;102094.16;4960142;29;20152;-80
2021/09/04 09:06:28;;;;;;;13.77;7.75;;;;;;;20.33;52.90;102095.94;4942803;29;20027;-80
2021/09/04 09:08:55;;;;;;;10.73;7.60;;;;;;;20.38;52.88;102096.03;4942859;29;20122;-80
2021/09/04 09:11:21;;;;;;;11.38;8.70;;;;;;;20.43;52.79;102087.28;4958184;29;20055;-81
2021/09/04 09:13:56;;;;;;;10.02;7.53;;;;;;;20.42;53.03;102077.66;4959372;29;20509;-81
2021/09/04 09:16:23;;;;;;;9.82;8.68;;;;;;;20.45;52.23;102076.78;4925994;29;20130;-82
2021/09/04 09:18:58;;;;;;;9.00;7.80;;;;;;;20.55;53.21;102078.59;4925986;29;20023;-81
2021/09/04 09:21:32;;;;;;;10.05;7.13;;;;;;;20.58;52.79;102083.88;4959747;29;20110;-80
2021/09/04 09:24:30;;;;;;;9.50;6.78;;;;;;;20.61;52.44;102089.16;4943931;28;20052;-79
2021/09/04 09:27:02;;;;;;;10.18;7.93;;;;;;;20.65;53.43;102075.16;4901807;29;20083;-88
2021/09/04 09:29:32;;;;;;;11.25;7.88;;;;;;;20.74;53.24;102082.22;4959338;29;20034;-76
2021/09/04 09:32:07;;;;;;;11.43;8.45;;;;;;;20.76;53.06;102084.00;4959351;29;20019;-78
2021/09/04 09:34:44;;;;;;;12.32;8.23;;;;;;;20.77;53.64;102067.34;4959412;29;20030;-79
2021/09/04 09:37:12;;;;;;;9.20;6.78;;;;;;;20.83;54.03;102071.75;4957523;28;20500;-75
2021/09/04 09:39:40;;;;;;;11.52;8.35;;;;;;;20.81;53.59;102069.09;4958359;29;20027;-80
2021/09/04 09:42:08;;;;;;;11.23;7.25;;;;;;;20.79;54.13;102056.81;4959153;29;20058;-78
2021/09/04 09:44:35;;;;;;;11.18;8.00;;;;;;;20.86;53.15;102066.50;4959212;29;20030;-79
2021/09/04 09:47:02;;;;;;;10.05;8.30;;;;;;;20.87;54.74;102079.66;4943866;29;20375;-88
2021/09/04 09:52:49;;;;;;;9.82;7.38;;;;;;;20.54;52.49;102066.31;4958916;29;20069;-82
2021/09/04 09:55:15;;;;;;;12.57;7.85;;;;;;;20.49;52.51;102049.69;4940787;29;20126;-81
2021/09/04 09:57:42;;;;;;;9.75;7.38;;;;;;;20.71;52.44;102076.94;4925470;29;20027;-80
2021/09/04 10:00:08;;;;;;;9.05;7.60;;;;;;;20.58;52.35;102062.84;4940913;29;20034;-79
2021/09/04 10:02:34;;;;;;;12.52;9.07;;;;;;;20.69;52.54;102077.81;4925814;29;20034;-83
2021/09/04 10:05:00;;;;;;;12.75;7.45;;;;;;;20.61;52.55;102062.88;4959594;29;20478;-86
2021/09/04 10:07:26;;;;;;;9.57;6.80;;;;;;;20.73;52.56;102073.47;4910739;29;20139;-87
2021/09/04 10:09:52;;;;;;;10.32;7.57;;;;;;;20.75;52.90;102073.47;4953596;29;20062;-82
2021/09/04 10:12:18;;;;;;;10.23;7.25;;;;;;;20.73;53.65;102068.22;4927377;29;20023;-84
2021/09/04 10:14:46;;;;;;;10.70;7.78;;;;;;;20.63;53.38;102051.50;4926872;29;20019;-79
2021/09/04 10:17:12;;;;;;;7.75;6.90;;;;;;;20.73;53.78;102067.31;4957634;29;20027;-80
2021/09/04 10:19:39;;;;;;;8.50;7.53;;;;;;;20.77;53.42;102066.47;4926324;29;20148;-79
2021/09/04 10:22:07;;;;;;;9.55;7.30;;;;;;;20.82;53.07;102076.13;4957316;29;20032;-79
2021/09/04 10:24:50;;;;;;;9.18;7.22;;;;;;;20.75;52.74;102061.22;4956752;29;20098;-76
2021/09/04 10:27:28;;;;;;;;;;;;;;;20.79;52.52;102078.72;4940700;29;20048;-76
2021/09/04 10:29:54;;;;;;;9.27;7.22;;;;;;;20.84;52.40;102081.41;4941642;29;19918;-75
2021/09/04 10:32:19;;;;;;;8.77;6.53;;;;;;;20.86;53.04;102074.41;4955732;29;20027;-75
2021/09/04 10:34:47;;;;;;;8.63;7.30;;;;;;;20.88;52.66;102081.44;4924439;29;20118;-75
2021/09/04 10:37:12;;;;;;;11.43;7.78;;;;;;;20.89;52.63;102075.31;4924584;29;20024;-76
2021/09/04 10:39:44;;;;;;;10.45;7.30;;;;;;;20.90;52.66;102078.81;4940718;29;20063;-76
2021/09/04 10:42:10;;;;;;;9.77;7.13;;;;;;;20.85;52.92;102063.00;4954834;29;20070;-78
2021/09/04 10:44:36;;;;;;;12.18;8.45;;;;;;;20.81;52.89;102048.06;4937290;29;20118;-78
2021/09/04 10:47:03;;;;;;;13.27;7.57;;;;;;;20.86;52.62;102054.25;4949688;29;20033;-76
2021/09/04 10:49:41;;;;;;;12.30;8.07;;;;;;;20.91;52.87;102067.38;4924768;29;20035;-76
2021/09/04 10:52:07;;;;;;;8.73;7.45;;;;;;;20.83;52.70;102037.56;4956828;29;20023;-78
2021/09/04 10:54:56;;;;;;;10.38;7.22;;;;;;;20.92;53.13;102059.50;4940227;29;20034;-76
2021/09/04 10:57:21;;;;;;;11.40;6.78;;;;;;;20.88;52.89;102046.38;4955359;29;20054;-80
2021/09/04 10:59:59;;;;;;;10.68;7.93;;;;;;;20.58;51.26;102062.84;4955393;29;20031;-78
2021/09/04 11:02:48;;;;;;;12.30;7.88;;;;;;;19.90;51.64;102063.22;4939534;29;20078;-75
2021/09/04 11:05:34;;;;;;;11.13;7.63;;;;;;;19.38;51.86;102060.06;4955363;29;20162;-81
2021/09/04 11:08:00;;;;;;;10.18;8.85;;;;;;;19.37;51.78;102055.66;4942194;29;20043;-82
2021/09/04 11:10:34;;;;;;;12.70;8.82;;;;;;;19.04;52.22;102029.97;5153299;27;20321;-81
2021/09/04 11:13:13;;;;;;;9.82;7.13;;;;;;;19.30;52.05;102072.22;5115548;28;20031;-83
2021/09/04 11:15:46;;;;;;;17.13;9.32;;;;;;;19.32;51.76;102054.75;5132477;28;20031;-76
2021/09/04 11:18:20;;;;;;;9.90;8.10;;;;;;;19.33;51.96;102043.41;5115161;28;20080;-79
2021/09/04 11:20:48;;;;;;;10.07;7.75;;;;;;;19.37;51.63;102057.41;5129259;27;20027;-78
2021/09/04 11:23:28;;;;;;;10.25;7.72;;;;;;;19.42;51.65;102055.72;5111824;28;20086;-81
2021/09/04 11:25:54;;;;;;;12.05;8.23;;;;;;;19.46;51.71;102053.16;5094912;28;20042;-77
2021/09/04 11:28:34;;;;;;;9.80;7.85;;;;;;;19.38;51.35;102030.31;5094193;28;20118;-81